Zrenjanin, Serbia
Current Conditions -  °F | °C
As of 11:30 AM on Friday 28 Nov 2014 (Local Time) from LYBT Reporting Station
Clear Clear  
Wind Chill: 40°   Ceiling: Unl
Heat Index: 43°   Visibility: 6mi
Dew Point: 36°   Wind: 5mph
Humidity: 76%   Direction: 80°E
Pressure: 30.06"   Gusts: NA
Location:  45.37°N, 20.4°E
Report Text: LYBT 280930Z 08004KT CAVOK 06/02 Q1018 NOSIG
Loading
Personal Weather Stations






























Interactive Weather Map New forecast layout! Learn more

10-Day Weather Forecast

Advertisements
Track Severe Weather on mobile